createdAt,value
2017-01-03T00:00:48.163Z,27.1
2017-01-03T00:01:46.639Z,27.2
2017-01-03T00:02:48.139Z,27.2
2017-01-03T00:03:48.187Z,27.2
2017-01-03T00:04:48.309Z,27.2
2017-01-03T00:05:48.395Z,27.2
2017-01-03T00:06:46.672Z,27.1
2017-01-03T00:07:48.413Z,27.1
2017-01-03T00:08:48.316Z,27.1
2017-01-03T00:09:46.716Z,27.1
2017-01-03T00:10:48.356Z,27.1
2017-01-03T00:11:46.808Z,27.1
2017-01-03T00:12:48.602Z,27.1
2017-01-03T00:13:46.921Z,27.1
2017-01-03T00:14:46.966Z,27.1
2017-01-03T00:15:47.035Z,27.1
2017-01-03T00:16:48.700Z,27.1
2017-01-03T00:17:47.188Z,27.1
2017-01-03T00:18:47.140Z,27.1
2017-01-03T00:19:47.366Z,27.1
2017-01-03T00:20:48.964Z,27.1
2017-01-03T00:21:47.325Z,27.1
2017-01-03T00:22:48.970Z,27.1
2017-01-03T00:23:47.507Z,27.1
2017-01-03T00:24:49.095Z,27.1
2017-01-03T00:25:47.672Z,27.1
2017-01-03T00:26:47.602Z,27.1
2017-01-03T00:27:47.699Z,27.1
2017-01-03T00:28:49.287Z,27.1
2017-01-03T00:29:47.833Z,27.1
2017-01-03T00:30:47.869Z,27.1
2017-01-03T00:31:47.742Z,27.1
2017-01-03T00:32:49.449Z,27.1
2017-01-03T00:33:49.491Z,27.1
2017-01-03T00:34:47.860Z,27.1
2017-01-03T00:35:47.892Z,27.1
2017-01-03T00:36:48.134Z,27
2017-01-03T00:37:48.093Z,27.1
2017-01-03T00:38:49.703Z,27.1
2017-01-03T00:39:48.118Z,27.1
2017-01-03T00:40:48.358Z,27.1
2017-01-03T00:41:50.104Z,27
2017-01-03T00:42:49.973Z,27.1
2017-01-03T00:43:50.081Z,27
2017-01-03T00:44:50.084Z,27.1
2017-01-03T00:45:48.624Z,27.1
2017-01-03T00:46:48.706Z,27.1
2017-01-03T00:47:50.180Z,27.1
2017-01-03T00:48:50.251Z,27.1
2017-01-03T00:49:48.812Z,27.1
2017-01-03T00:50:48.824Z,27.1
2017-01-03T00:51:50.444Z,27.1
2017-01-03T00:52:48.827Z,27.1
2017-01-03T00:53:48.921Z,27.1
2017-01-03T00:54:48.818Z,27
2017-01-03T00:55:48.875Z,27.1
2017-01-03T00:56:49.018Z,27.1
2017-01-03T00:57:49.033Z,27.1
2017-01-03T00:58:50.650Z,27.1
2017-01-03T00:59:49.148Z,27.1
2017-01-03T01:00:49.175Z,27.1
2017-01-03T01:01:50.732Z,27.1
2017-01-03T01:02:49.217Z,27.1
2017-01-03T01:03:49.224Z,27
2017-01-03T01:04:50.886Z,27.1
2017-01-03T01:05:49.238Z,27.1
2017-01-03T01:06:49.288Z,27.1
2017-01-03T01:07:49.282Z,27.1
2017-01-03T01:08:50.880Z,27.1
2017-01-03T01:09:50.925Z,27.1
2017-01-03T01:10:49.377Z,27
2017-01-03T01:11:51.006Z,27.1
2017-01-03T01:12:49.515Z,27.1
2017-01-03T01:13:51.195Z,27
2017-01-03T01:14:51.250Z,27.1
2017-01-03T01:15:56.239Z,27.1
2017-01-03T01:16:49.951Z,27.1
2017-01-03T01:17:51.531Z,27
2017-01-03T01:18:50.077Z,27
2017-01-03T01:19:50.143Z,27.1
2017-01-03T01:20:50.140Z,27.1
2017-01-03T01:21:50.223Z,27.1
2017-01-03T01:22:50.172Z,27
2017-01-03T01:23:50.253Z,27.1
2017-01-03T01:24:50.457Z,27
2017-01-03T01:25:52.136Z,27
2017-01-03T01:26:50.557Z,27
2017-01-03T01:27:52.231Z,27
2017-01-03T01:28:52.357Z,27
2017-01-03T01:29:50.749Z,27
2017-01-03T01:30:50.828Z,27
2017-01-03T01:31:50.933Z,27
2017-01-03T01:32:50.784Z,27
2017-01-03T01:33:52.389Z,27
2017-01-03T01:34:50.821Z,27
2017-01-03T01:35:51.019Z,27
2017-01-03T01:36:51.033Z,27
2017-01-03T01:37:51.142Z,27
2017-01-03T01:38:52.707Z,27
2017-01-03T01:39:51.177Z,27
2017-01-03T01:40:51.114Z,27
2017-01-03T01:41:51.339Z,27
2017-01-03T01:42:51.270Z,27
2017-01-03T01:43:51.248Z,27
2017-01-03T01:44:53.052Z,27
2017-01-03T01:45:52.986Z,27
2017-01-03T01:46:53.092Z,27
2017-01-03T01:47:53.157Z,27
2017-01-03T01:48:51.535Z,27
2017-01-03T01:49:51.688Z,27
2017-01-03T01:50:53.227Z,27
2017-01-03T01:51:53.414Z,27
2017-01-03T01:52:53.415Z,27
2017-01-03T01:53:51.994Z,27
2017-01-03T01:54:52.068Z,27
2017-01-03T01:55:53.606Z,27
2017-01-03T01:56:53.653Z,27
2017-01-03T01:57:53.780Z,27
2017-01-03T01:58:53.868Z,27
2017-01-03T01:59:53.736Z,27
2017-01-03T02:00:52.160Z,27
2017-01-03T02:01:52.264Z,27
2017-01-03T02:02:52.349Z,27
2017-01-03T02:03:54.016Z,27
2017-01-03T02:04:53.934Z,27
2017-01-03T02:05:53.954Z,27
2017-01-03T02:06:54.002Z,27
2017-01-03T02:07:54.157Z,27
2017-01-03T02:08:52.571Z,27
2017-01-03T02:09:52.708Z,27
2017-01-03T02:10:52.736Z,27
2017-01-03T02:11:54.229Z,27
2017-01-03T02:12:52.762Z,27
2017-01-03T02:13:52.791Z,27
2017-01-03T02:14:52.741Z,27
2017-01-03T02:15:52.823Z,27
2017-01-03T02:16:52.890Z,27
2017-01-03T02:17:53.037Z,27
2017-01-03T02:18:54.600Z,27
2017-01-03T02:19:53.791Z,27
2017-01-03T02:20:53.211Z,27
2017-01-03T02:21:53.191Z,27
2017-01-03T02:22:54.748Z,27
2017-01-03T02:23:53.939Z,27
2017-01-03T02:24:55.013Z,27
2017-01-03T02:25:55.111Z,27
2017-01-03T02:26:55.098Z,27
2017-01-03T02:27:55.089Z,27
2017-01-03T02:28:53.567Z,27
2017-01-03T02:29:55.294Z,27
2017-01-03T02:30:55.500Z,27
2017-01-03T02:31:55.450Z,27
2017-01-03T02:32:55.606Z,26.9
2017-01-03T02:33:55.762Z,26.9
2017-01-03T02:34:54.080Z,27
2017-01-03T02:35:54.082Z,27
2017-01-03T02:36:55.043Z,27
2017-01-03T02:37:54.257Z,26.9
2017-01-03T02:38:54.385Z,27
2017-01-03T02:39:55.979Z,27
2017-01-03T02:40:55.924Z,27
2017-01-03T02:41:55.126Z,27
2017-01-03T02:42:56.191Z,26.9
2017-01-03T02:43:54.625Z,27
2017-01-03T02:44:57.589Z,27
2017-01-03T02:45:54.600Z,27
2017-01-03T02:46:54.862Z,27
2017-01-03T02:47:55.837Z,27
2017-01-03T02:48:56.501Z,26.9
2017-01-03T02:49:54.809Z,27
2017-01-03T02:50:56.492Z,27
2017-01-03T02:51:56.595Z,27
2017-01-03T02:52:56.630Z,27
2017-01-03T02:53:56.536Z,26.9
2017-01-03T02:54:55.638Z,27
2017-01-03T02:55:56.744Z,27
2017-01-03T02:56:56.746Z,27
2017-01-03T02:57:56.667Z,27
2017-01-03T02:58:55.296Z,27
2017-01-03T02:59:56.911Z,27
2017-01-03T03:00:55.142Z,27
2017-01-03T03:01:55.270Z,27
2017-01-03T03:02:57.013Z,27
2017-01-03T03:03:55.304Z,27
2017-01-03T03:04:55.360Z,27
2017-01-03T03:05:56.936Z,27
2017-01-03T03:06:57.127Z,27
2017-01-03T03:07:57.687Z,27
2017-01-03T03:08:55.637Z,26.9
2017-01-03T03:09:55.736Z,26.9
2017-01-03T03:10:56.901Z,26.9
2017-01-03T03:11:55.775Z,26.9
2017-01-03T03:12:57.514Z,26.9
2017-01-03T03:13:56.531Z,27
2017-01-03T03:14:57.618Z,27
2017-01-03T03:15:57.746Z,26.9
2017-01-03T03:16:56.096Z,26.9
2017-01-03T03:17:56.908Z,26.9
2017-01-03T03:18:56.442Z,26.9
2017-01-03T03:19:58.037Z,26.9
2017-01-03T03:20:58.008Z,26.9
2017-01-03T03:21:58.117Z,26.9
2017-01-03T03:22:56.561Z,26.9
2017-01-03T03:23:58.121Z,26.9
2017-01-03T03:24:58.020Z,26.9
2017-01-03T03:25:58.100Z,26.9
2017-01-03T03:26:56.541Z,26.9
2017-01-03T03:27:58.131Z,26.9
2017-01-03T03:28:56.647Z,26.9
2017-01-03T03:29:56.790Z,26.9
2017-01-03T03:30:56.840Z,26.9
2017-01-03T03:31:58.412Z,26.9
2017-01-03T03:32:56.785Z,26.9
2017-01-03T03:33:56.961Z,26.9
2017-01-03T03:34:58.643Z,26.9
2017-01-03T03:35:56.941Z,26.9
2017-01-03T03:36:57.061Z,26.9
2017-01-03T03:37:56.955Z,26.9
2017-01-03T03:38:56.972Z,26.9
2017-01-03T03:39:58.719Z,26.9
2017-01-03T03:40:58.786Z,26.9
2017-01-03T03:41:58.938Z,26.9
2017-01-03T03:42:57.132Z,26.9
2017-01-03T03:43:58.829Z,26.9
2017-01-03T03:44:59.026Z,26.9
2017-01-03T03:45:59.044Z,26.9
2017-01-03T03:46:57.280Z,26.9
2017-01-03T03:47:57.381Z,26.9
2017-01-03T03:48:57.639Z,26.9
2017-01-03T03:49:57.595Z,26.9
2017-01-03T03:50:59.187Z,26.9
2017-01-03T03:51:59.200Z,26.9
2017-01-03T03:52:59.275Z,26.9
2017-01-03T03:53:59.263Z,26.9
2017-01-03T03:54:57.858Z,26.9
2017-01-03T03:55:57.824Z,26.9
2017-01-03T03:56:57.838Z,26.9
2017-01-03T03:57:59.474Z,26.9
2017-01-03T03:58:59.628Z,26.9
2017-01-03T03:59:57.946Z,26.9
2017-01-03T04:00:59.587Z,26.9
2017-01-03T04:01:58.143Z,26.9
2017-01-03T04:02:59.699Z,26.9
2017-01-03T04:03:59.878Z,26.9
2017-01-03T04:04:59.719Z,26.9
2017-01-03T04:05:59.793Z,26.9
2017-01-03T04:06:58.378Z,26.9
2017-01-03T04:07:58.282Z,26.9
2017-01-03T04:08:59.902Z,26.9
2017-01-03T04:09:59.945Z,26.9
2017-01-03T04:10:58.647Z,26.9
2017-01-03T04:11:58.623Z,26.9
2017-01-03T04:12:58.663Z,26.9
2017-01-03T04:14:00.362Z,26.9
2017-01-03T04:15:00.453Z,26.9
2017-01-03T04:15:58.962Z,26.9
2017-01-03T04:17:00.453Z,26.9
2017-01-03T04:17:58.918Z,26.9
2017-01-03T04:19:00.558Z,26.9
2017-01-03T04:20:00.705Z,26.9
2017-01-03T04:20:59.059Z,26.9
2017-01-03T04:22:00.791Z,26.9
2017-01-03T04:22:59.103Z,26.9
2017-01-03T04:24:00.722Z,26.9
2017-01-03T04:24:59.137Z,26.9
2017-01-03T04:26:00.742Z,26.9
2017-01-03T04:26:59.315Z,26.9
2017-01-03T04:27:59.267Z,26.9
2017-01-03T04:29:00.942Z,26.9
2017-01-03T04:30:00.960Z,26.9
2017-01-03T04:30:59.537Z,26.8
2017-01-03T04:31:59.415Z,26.9
2017-01-03T04:32:59.528Z,26.9
2017-01-03T04:33:59.695Z,26.9
2017-01-03T04:34:59.665Z,26.9
2017-01-03T04:36:01.419Z,26.9
2017-01-03T04:37:01.418Z,26.9
2017-01-03T04:37:59.687Z,26.9
2017-01-03T04:38:59.755Z,26.9
2017-01-03T04:39:59.872Z,26.9
2017-01-03T04:40:59.919Z,27
2017-01-03T04:41:59.907Z,27
2017-01-03T04:43:01.631Z,26.9
2017-01-03T04:44:01.672Z,27
2017-01-03T04:45:01.607Z,27
2017-01-03T04:46:00.067Z,27
2017-01-03T04:47:01.709Z,27
2017-01-03T04:48:01.868Z,27
2017-01-03T04:49:01.895Z,27
2017-01-03T04:50:00.298Z,26.9
2017-01-03T04:51:01.920Z,27
2017-01-03T04:52:00.386Z,26.9
2017-01-03T04:53:00.469Z,27
2017-01-03T04:54:02.209Z,27
2017-01-03T04:55:00.589Z,26.9
2017-01-03T04:56:02.220Z,27
2017-01-03T04:57:02.258Z,26.9
2017-01-03T04:58:02.328Z,27
2017-01-03T04:59:00.771Z,27
2017-01-03T05:00:00.937Z,27
2017-01-03T05:01:00.961Z,27
2017-01-03T05:02:00.995Z,27
2017-01-03T05:03:02.514Z,27
2017-01-03T05:04:02.575Z,26.9
2017-01-03T05:05:02.739Z,27
2017-01-03T05:06:01.104Z,27
2017-01-03T05:07:02.814Z,27
2017-01-03T05:08:02.752Z,27
2017-01-03T05:09:02.799Z,26.9
2017-01-03T05:10:02.792Z,27
2017-01-03T05:11:02.922Z,27
2017-01-03T05:12:02.878Z,27
2017-01-03T05:13:01.478Z,27
2017-01-03T05:14:01.589Z,26.9
2017-01-03T05:15:01.437Z,27
2017-01-03T05:16:01.568Z,27
2017-01-03T05:17:03.291Z,27
2017-01-03T05:18:01.758Z,27
2017-01-03T05:19:01.619Z,26.9
2017-01-03T05:20:03.413Z,26.9
2017-01-03T05:21:01.801Z,27
2017-01-03T05:22:01.758Z,27
2017-01-03T05:23:01.883Z,27
2017-01-03T05:24:02.017Z,26.9
2017-01-03T05:25:02.124Z,26.9
2017-01-03T05:26:03.560Z,26.9
2017-01-03T05:27:02.228Z,26.9
2017-01-03T05:28:03.863Z,26.9
2017-01-03T05:29:03.896Z,26.9
2017-01-03T05:30:02.226Z,26.9
2017-01-03T05:31:02.355Z,26.9
2017-01-03T05:32:03.982Z,26.9
2017-01-03T05:33:03.963Z,26.9
2017-01-03T05:34:02.425Z,26.9
2017-01-03T05:35:04.083Z,26.9
2017-01-03T05:36:04.075Z,26.9
2017-01-03T05:37:02.616Z,26.9
2017-01-03T05:38:04.119Z,26.9
2017-01-03T05:39:04.352Z,26.9
2017-01-03T05:40:04.358Z,26.9
2017-01-03T05:41:04.440Z,26.9
2017-01-03T05:42:02.882Z,26.9
2017-01-03T05:43:04.510Z,26.9
2017-01-03T05:44:02.861Z,26.9
2017-01-03T05:45:04.578Z,26.9
2017-01-03T05:46:03.097Z,26.9
2017-01-03T05:47:03.141Z,26.9
2017-01-03T05:48:03.151Z,26.9
2017-01-03T05:49:04.703Z,26.9
2017-01-03T05:50:04.889Z,26.9
2017-01-03T05:51:04.787Z,26.9
2017-01-03T05:52:03.247Z,26.9
2017-01-03T05:53:03.334Z,26.9
2017-01-03T05:54:04.956Z,26.9
2017-01-03T05:55:04.975Z,26.9
2017-01-03T05:56:04.943Z,26.9
2017-01-03T05:57:03.538Z,26.9
2017-01-03T05:58:05.082Z,27
2017-01-03T05:59:05.120Z,26.9
2017-01-03T06:00:03.706Z,27
2017-01-03T06:01:05.251Z,27
2017-01-03T06:02:03.766Z,27
2017-01-03T06:03:03.946Z,27.1
2017-01-03T06:04:03.887Z,27
2017-01-03T06:05:05.483Z,27.1
2017-01-03T06:06:03.886Z,27.1
2017-01-03T06:07:05.569Z,27.1
2017-01-03T06:08:04.125Z,27.2
2017-01-03T06:09:03.943Z,27.2
2017-01-03T06:10:05.672Z,27.2
2017-01-03T06:11:05.740Z,27.3
2017-01-03T06:12:04.153Z,27.3
2017-01-03T06:13:05.809Z,27.3
2017-01-03T06:14:05.986Z,27.3
2017-01-03T06:15:06.013Z,27.4
2017-01-03T06:16:04.310Z,27.4
2017-01-03T06:17:04.352Z,27.4
2017-01-03T06:18:06.090Z,27.5
2017-01-03T06:19:06.188Z,27.5
2017-01-03T06:20:04.577Z,27.5
2017-01-03T06:21:06.179Z,27.6
2017-01-03T06:22:06.354Z,27.6
2017-01-03T06:23:06.390Z,27.6
2017-01-03T06:24:04.807Z,27.7
2017-01-03T06:25:06.502Z,27.7
2017-01-03T06:26:04.942Z,27.7
2017-01-03T06:27:06.555Z,27.7
2017-01-03T06:28:04.972Z,27.8
2017-01-03T06:29:06.466Z,27.8
2017-01-03T06:30:06.611Z,27.8
2017-01-03T06:31:05.008Z,27.8
2017-01-03T06:32:05.028Z,27.8
2017-01-03T06:33:04.986Z,27.9
2017-01-03T06:34:05.668Z,27.9
2017-01-03T06:35:05.106Z,27.9
2017-01-03T06:36:05.287Z,27.9
2017-01-03T06:37:06.774Z,27.9
2017-01-03T06:38:05.222Z,27.9
2017-01-03T06:39:05.341Z,27.9
2017-01-03T06:40:05.285Z,27.9
2017-01-03T06:41:05.348Z,27.9
2017-01-03T06:42:07.140Z,28
2017-01-03T06:43:07.128Z,28
2017-01-03T06:44:07.137Z,28
2017-01-03T06:45:05.523Z,28
2017-01-03T06:46:07.096Z,28
2017-01-03T06:47:07.123Z,28
2017-01-03T06:48:07.210Z,28
2017-01-03T06:49:05.608Z,28
2017-01-03T06:50:07.300Z,28
2017-01-03T06:51:05.855Z,28
2017-01-03T06:52:05.775Z,28.1
2017-01-03T06:53:07.444Z,28.1
2017-01-03T06:54:07.502Z,28.1
2017-01-03T06:55:05.993Z,28.1
2017-01-03T06:56:05.997Z,28.1
2017-01-03T06:57:06.109Z,28.1
2017-01-03T06:58:06.167Z,28.1
2017-01-03T06:59:06.320Z,28.2
2017-01-03T07:00:07.952Z,28.2
2017-01-03T07:01:06.362Z,28.2
2017-01-03T07:02:07.985Z,28.2
2017-01-03T07:03:07.970Z,28.2
2017-01-03T07:04:06.471Z,28.2
2017-01-03T07:05:06.481Z,28.2
2017-01-03T07:06:06.656Z,28.3
2017-01-03T07:07:08.241Z,28.3
2017-01-03T07:08:06.592Z,28.3
2017-01-03T07:09:06.707Z,28.3
2017-01-03T07:10:07.313Z,28.3
2017-01-03T07:11:06.615Z,28.3
2017-01-03T07:12:08.256Z,28.3
2017-01-03T07:13:06.651Z,28.4
2017-01-03T07:14:08.303Z,28.4
2017-01-03T07:15:08.351Z,28.4
2017-01-03T07:16:06.766Z,28.4
2017-01-03T07:17:06.887Z,28.4
2017-01-03T07:18:08.392Z,28.4
2017-01-03T07:19:07.057Z,28.5
2017-01-03T07:20:06.863Z,28.5
2017-01-03T07:21:08.549Z,28.4
2017-01-03T07:22:08.740Z,28.5
2017-01-03T07:23:08.671Z,28.5
2017-01-03T07:24:07.276Z,28.5
2017-01-03T07:25:08.985Z,28.6
2017-01-03T07:26:08.999Z,28.6
2017-01-03T07:27:09.015Z,28.6
2017-01-03T07:28:09.024Z,28.6
2017-01-03T07:29:07.455Z,28.6
2017-01-03T07:30:07.993Z,28.6
2017-01-03T07:31:07.284Z,28.6
2017-01-03T07:32:09.150Z,28.6
2017-01-03T07:33:09.135Z,28.6
2017-01-03T07:34:09.194Z,28.6
2017-01-03T07:35:09.198Z,28.6
2017-01-03T07:36:09.177Z,28.6
2017-01-03T07:37:07.471Z,28.6
2017-01-03T07:38:09.149Z,28.7
2017-01-03T07:39:09.324Z,28.7
2017-01-03T07:40:09.249Z,28.7
2017-01-03T07:41:07.831Z,28.7
2017-01-03T07:42:09.434Z,28.7
2017-01-03T07:43:10.047Z,28.8
2017-01-03T07:44:09.526Z,28.8
2017-01-03T07:45:08.092Z,28.8
2017-01-03T07:46:08.812Z,28.8
2017-01-03T07:47:08.080Z,28.9
2017-01-03T07:48:08.141Z,28.8
2017-01-03T07:49:08.267Z,28.9
2017-01-03T07:50:09.721Z,28.9
2017-01-03T07:51:09.880Z,28.9
2017-01-03T07:52:08.313Z,28.9
2017-01-03T07:53:08.406Z,28.9
2017-01-03T07:54:08.322Z,29
2017-01-03T07:55:08.523Z,29
2017-01-03T07:56:10.056Z,29
2017-01-03T07:57:09.212Z,29
2017-01-03T07:58:10.101Z,29
2017-01-03T07:59:08.489Z,29
2017-01-03T08:00:08.633Z,29.1
2017-01-03T08:01:10.204Z,29.1
2017-01-03T08:02:10.404Z,29.1
2017-01-03T08:03:10.389Z,29.1
2017-01-03T08:04:10.426Z,29.2
2017-01-03T08:05:08.746Z,29.2
2017-01-03T08:06:08.927Z,29.2
2017-01-03T08:07:10.519Z,29.2
2017-01-03T08:08:08.950Z,29.2
2017-01-03T08:09:08.878Z,29.1
2017-01-03T08:10:10.485Z,29.2
2017-01-03T08:11:09.010Z,29.2
2017-01-03T08:12:11.267Z,29.2
2017-01-03T08:13:10.768Z,29.2
2017-01-03T08:14:10.685Z,29.3
2017-01-03T08:15:10.793Z,29.3
2017-01-03T08:16:10.805Z,29.3
2017-01-03T08:17:09.266Z,29.3
2017-01-03T08:18:09.178Z,29.3
2017-01-03T08:19:10.039Z,29.3
2017-01-03T08:20:09.269Z,29.4
2017-01-03T08:21:11.028Z,29.3
2017-01-03T08:22:09.492Z,29.4
2017-01-03T08:23:11.118Z,29.4
2017-01-03T08:24:11.119Z,29.4
2017-01-03T08:25:09.511Z,29.4
2017-01-03T08:26:09.799Z,29.4
2017-01-03T08:27:11.225Z,29.4
2017-01-03T08:28:11.252Z,29.5
2017-01-03T08:29:11.347Z,29.5
2017-01-03T08:30:11.512Z,29.5
2017-01-03T08:31:10.033Z,29.5
2017-01-03T08:32:11.508Z,29.5
2017-01-03T08:33:11.558Z,29.5
2017-01-03T08:34:09.986Z,29.5
2017-01-03T08:35:10.737Z,29.5
2017-01-03T08:36:12.941Z,29.6
2017-01-03T08:37:11.873Z,29.6
2017-01-03T08:38:11.828Z,29.5
2017-01-03T08:39:10.435Z,29.6
2017-01-03T08:40:11.907Z,29.6
2017-01-03T08:41:10.352Z,29.6
2017-01-03T08:42:10.505Z,29.6
2017-01-03T08:43:12.183Z,29.6
2017-01-03T08:44:12.044Z,29.7
2017-01-03T08:45:10.640Z,29.7
2017-01-03T08:46:10.664Z,29.7
2017-01-03T08:47:13.075Z,29.7
2017-01-03T08:48:10.774Z,29.7
2017-01-03T08:49:10.853Z,29.7
2017-01-03T08:50:10.984Z,29.8
2017-01-03T08:51:11.098Z,29.7
2017-01-03T08:52:12.677Z,29.8
2017-01-03T08:53:11.155Z,29.8
2017-01-03T08:54:12.759Z,29.8
2017-01-03T08:55:11.135Z,29.8
2017-01-03T08:56:12.054Z,29.8
2017-01-03T08:57:13.430Z,29.8
2017-01-03T08:58:13.642Z,29.8
2017-01-03T08:59:11.370Z,29.8
2017-01-03T09:00:13.009Z,29.8
2017-01-03T09:01:11.439Z,29.9
2017-01-03T09:02:13.152Z,29.9
2017-01-03T09:03:11.544Z,29.9
2017-01-03T09:04:13.315Z,29.9
2017-01-03T09:05:11.716Z,29.9
2017-01-03T09:06:11.742Z,30
2017-01-03T09:07:13.377Z,30
2017-01-03T09:08:13.538Z,29.9
2017-01-03T09:09:13.595Z,30
2017-01-03T09:10:13.590Z,30
2017-01-03T09:11:13.548Z,30
2017-01-03T09:12:13.560Z,30
2017-01-03T09:13:12.013Z,30
2017-01-03T09:14:13.706Z,30
2017-01-03T09:15:12.244Z,30
2017-01-03T09:16:13.798Z,30
2017-01-03T09:17:12.292Z,30
2017-01-03T09:18:12.429Z,30
2017-01-03T09:19:14.041Z,30
2017-01-03T09:20:14.015Z,30
2017-01-03T09:21:14.232Z,30.1
2017-01-03T09:22:14.234Z,30.1
2017-01-03T09:23:12.631Z,30.1
2017-01-03T09:24:14.292Z,30.1
2017-01-03T09:25:12.702Z,30.1
2017-01-03T09:26:15.011Z,30.1
2017-01-03T09:27:14.456Z,30.1
2017-01-03T09:28:12.932Z,30.1
2017-01-03T09:29:13.021Z,30.2
2017-01-03T09:30:14.640Z,30.2
2017-01-03T09:31:14.642Z,30.2
2017-01-03T09:32:13.078Z,30.2
2017-01-03T09:33:14.707Z,30.1
2017-01-03T09:34:14.843Z,30.2
2017-01-03T09:35:13.356Z,30.2
2017-01-03T09:36:14.856Z,30.2
2017-01-03T09:37:14.893Z,30.2
2017-01-03T09:38:15.129Z,30.2
2017-01-03T09:39:15.084Z,30.2
2017-01-03T09:40:15.146Z,30.2
2017-01-03T09:41:15.215Z,30.2
2017-01-03T09:42:13.675Z,30.2
2017-01-03T09:43:15.214Z,30.3
2017-01-03T09:44:13.640Z,30.3
2017-01-03T09:45:13.748Z,30.3
2017-01-03T09:46:13.796Z,30.3
2017-01-03T09:47:13.773Z,30.3
2017-01-03T09:48:13.892Z,30.3
2017-01-03T09:49:15.454Z,30.3
2017-01-03T09:50:13.887Z,30.3
2017-01-03T09:51:15.640Z,30.3
2017-01-03T09:52:13.929Z,30.3
2017-01-03T09:53:15.651Z,30.3
2017-01-03T09:54:15.649Z,30.3
2017-01-03T09:55:15.672Z,30.3
2017-01-03T09:56:14.167Z,30.3
2017-01-03T09:57:15.659Z,30.3
2017-01-03T09:58:15.826Z,30.3
2017-01-03T09:59:15.825Z,30.3
2017-01-03T10:00:15.961Z,30.3
2017-01-03T10:01:15.879Z,30.3
2017-01-03T10:02:15.952Z,30.3
2017-01-03T10:03:16.044Z,30.3
2017-01-03T10:04:14.392Z,30.3
2017-01-03T10:05:16.139Z,30.3
2017-01-03T10:06:14.564Z,30.3
2017-01-03T10:07:16.357Z,30.3
2017-01-03T10:08:16.494Z,30.3
2017-01-03T10:09:16.465Z,30.3
2017-01-03T10:10:17.477Z,30.3
2017-01-03T10:11:16.699Z,30.3
2017-01-03T10:12:16.692Z,30.3
2017-01-03T10:13:15.053Z,30.3
2017-01-03T10:14:15.104Z,30.3
2017-01-03T10:15:17.481Z,30.3
2017-01-03T10:16:15.184Z,30.3
2017-01-03T10:17:16.875Z,30.4
2017-01-03T10:18:16.924Z,30.4
2017-01-03T10:19:15.413Z,30.4
2017-01-03T10:20:15.501Z,30.4
2017-01-03T10:21:16.014Z,30.3
2017-01-03T10:22:15.635Z,30.4
2017-01-03T10:23:15.691Z,30.4
2017-01-03T10:24:15.754Z,30.4
2017-01-03T10:25:17.407Z,30.4
2017-01-03T10:26:15.838Z,30.4
2017-01-03T10:27:15.796Z,30.4
2017-01-03T10:28:15.947Z,30.4
2017-01-03T10:29:15.867Z,30.4
2017-01-03T10:30:15.902Z,30.4
2017-01-03T10:31:15.918Z,30.4
2017-01-03T10:32:18.352Z,30.4
2017-01-03T10:33:17.713Z,30.4
2017-01-03T10:34:17.802Z,30.5
2017-01-03T10:35:16.367Z,30.5
2017-01-03T10:36:16.322Z,30.5
2017-01-03T10:37:17.702Z,30.5
2017-01-03T10:38:16.398Z,30.5
2017-01-03T10:39:16.429Z,30.5
2017-01-03T10:40:16.663Z,30.5
2017-01-03T10:41:18.111Z,30.5
2017-01-03T10:42:16.702Z,30.5
2017-01-03T10:43:16.547Z,30.5
2017-01-03T10:44:16.786Z,30.5
2017-01-03T10:45:16.829Z,30.5
2017-01-03T10:46:18.372Z,30.5
2017-01-03T10:47:16.909Z,30.5
2017-01-03T10:48:18.546Z,30.5
2017-01-03T10:49:16.914Z,30.5
2017-01-03T10:50:18.553Z,30.5
2017-01-03T10:51:18.665Z,30.5
2017-01-03T10:52:17.139Z,30.6
2017-01-03T10:53:17.179Z,30.6
2017-01-03T10:54:18.730Z,30.6
2017-01-03T10:55:18.910Z,30.6
2017-01-03T10:56:17.289Z,30.6
2017-01-03T10:57:19.064Z,30.6
2017-01-03T10:58:19.031Z,30.6
2017-01-03T10:59:17.398Z,30.6
2017-01-03T11:00:17.386Z,30.6
2017-01-03T11:01:19.137Z,30.6
2017-01-03T11:02:17.618Z,30.6
2017-01-03T11:03:18.023Z,30.7
2017-01-03T11:04:19.948Z,30.6
2017-01-03T11:05:25.007Z,30.4
2017-01-03T11:06:20.838Z,30.1
2017-01-03T11:07:20.768Z,29.7
2017-01-03T11:08:17.918Z,29.4
2017-01-03T11:09:17.901Z,29
2017-01-03T11:10:18.120Z,28.9
2017-01-03T11:11:19.741Z,28.8
2017-01-03T11:12:19.721Z,28.9
2017-01-03T11:13:18.298Z,28.9
2017-01-03T11:14:18.964Z,29.1
2017-01-03T11:15:19.855Z,29.1
2017-01-03T11:16:19.912Z,29.2
2017-01-03T11:17:20.486Z,29.3
2017-01-03T11:18:20.020Z,29.4
2017-01-03T11:19:18.450Z,29.5
2017-01-03T11:20:20.147Z,29.5
2017-01-03T11:21:18.573Z,29.6
2017-01-03T11:22:20.242Z,29.7
2017-01-03T11:23:20.242Z,29.8
2017-01-03T11:24:18.885Z,29.9
2017-01-03T11:25:20.539Z,29.9
2017-01-03T11:26:18.934Z,30
2017-01-03T11:27:18.914Z,30
2017-01-03T11:28:20.691Z,30
2017-01-03T11:29:19.033Z,30.1
2017-01-03T11:30:19.148Z,30.1
2017-01-03T11:31:19.133Z,30.1
2017-01-03T11:32:20.818Z,30.2
2017-01-03T11:33:20.859Z,30.3
2017-01-03T11:34:21.024Z,30.3
2017-01-03T11:35:19.356Z,30.3
2017-01-03T11:36:21.114Z,30.4
2017-01-03T11:37:21.249Z,30.4
2017-01-03T11:38:21.181Z,30.4
2017-01-03T11:39:19.779Z,30.4
2017-01-03T11:40:19.831Z,30.4
2017-01-03T11:41:19.742Z,30.5
2017-01-03T11:42:19.964Z,30.5
2017-01-03T11:43:22.900Z,30.5
2017-01-03T11:44:21.545Z,30.5
2017-01-03T11:45:20.527Z,30.5
2017-01-03T11:46:21.732Z,30.5
2017-01-03T11:47:21.776Z,30.6
2017-01-03T11:48:21.741Z,30.6
2017-01-03T11:49:20.120Z,30.6
2017-01-03T11:50:21.843Z,30.6
2017-01-03T11:51:21.804Z,30.6
2017-01-03T11:52:20.354Z,30.7
2017-01-03T11:53:21.854Z,30.7
2017-01-03T11:54:21.971Z,30.7
2017-01-03T11:55:20.336Z,30.7
2017-01-03T11:56:21.967Z,30.7
2017-01-03T11:57:20.523Z,30.7
2017-01-03T11:58:22.220Z,30.7
2017-01-03T11:59:20.558Z,30.8
2017-01-03T12:00:22.180Z,30.7
2017-01-03T12:01:20.599Z,30.8
2017-01-03T12:02:22.314Z,30.8
2017-01-03T12:03:20.671Z,30.8
2017-01-03T12:04:20.746Z,30.9
2017-01-03T12:05:22.454Z,30.9
2017-01-03T12:06:23.033Z,31.1
2017-01-03T12:07:20.781Z,31.3
2017-01-03T12:08:22.549Z,31.4
2017-01-03T12:09:21.610Z,31.4
2017-01-03T12:10:21.007Z,31.4
2017-01-03T12:11:22.791Z,31.4
2017-01-03T12:12:22.669Z,31.4
2017-01-03T12:13:24.621Z,31.4
2017-01-03T12:14:21.183Z,31.4
2017-01-03T12:15:21.220Z,31.3
2017-01-03T12:16:22.967Z,31.2
2017-01-03T12:17:23.032Z,31.2
2017-01-03T12:18:23.143Z,31.2
2017-01-03T12:19:21.618Z,31.2
2017-01-03T12:20:22.934Z,31.2
2017-01-03T12:21:22.342Z,31.1
2017-01-03T12:22:23.168Z,31.1
2017-01-03T12:23:22.431Z,31
2017-01-03T12:24:23.478Z,31
2017-01-03T12:25:21.775Z,31
2017-01-03T12:26:21.851Z,30.9
2017-01-03T12:27:23.496Z,30.9
2017-01-03T12:28:22.062Z,30.9
2017-01-03T12:29:22.121Z,30.8
2017-01-03T12:30:22.051Z,30.8
2017-01-03T12:31:24.521Z,30.8
2017-01-03T12:32:22.199Z,30.8
2017-01-03T12:33:22.357Z,30.7
2017-01-03T12:34:22.409Z,30.7
2017-01-03T12:35:22.373Z,30.7
2017-01-03T12:36:22.475Z,30.7
2017-01-03T12:37:24.198Z,30.6
2017-01-03T12:38:22.592Z,30.6
2017-01-03T12:39:24.295Z,30.6
2017-01-03T12:40:24.369Z,30.6
2017-01-03T12:41:23.318Z,30.6
2017-01-03T12:42:24.526Z,30.5
2017-01-03T12:43:23.581Z,30.5
2017-01-03T12:44:24.617Z,30.5
2017-01-03T12:45:23.103Z,30.5
2017-01-03T12:46:22.972Z,30.5
2017-01-03T12:47:23.953Z,30.5
2017-01-03T12:48:23.099Z,30.5
2017-01-03T12:49:24.814Z,30.5
2017-01-03T12:50:23.301Z,30.5
2017-01-03T12:51:25.623Z,30.4
2017-01-03T12:52:24.086Z,30.5
2017-01-03T12:53:26.455Z,30.4
2017-01-03T12:54:24.758Z,30.4
2017-01-03T12:55:25.200Z,30.4
2017-01-03T12:56:23.607Z,30.4
2017-01-03T12:57:23.650Z,30.3
2017-01-03T12:58:25.388Z,30.3
2017-01-03T12:59:23.835Z,30.3
2017-01-03T13:00:25.471Z,30.3
2017-01-03T13:01:23.930Z,30.2
2017-01-03T13:02:25.554Z,30.3
2017-01-03T13:03:26.899Z,30.3
2017-01-03T13:04:24.032Z,30.3
2017-01-03T13:05:26.308Z,30.3
2017-01-03T13:06:25.721Z,30.3
2017-01-03T13:07:27.236Z,30.3
2017-01-03T13:08:24.786Z,30.3
2017-01-03T13:09:25.873Z,30.3
2017-01-03T13:10:26.548Z,30.4
2017-01-03T13:11:27.885Z,30.4
2017-01-03T13:12:32.121Z,30.4
2017-01-03T13:13:25.024Z,30.4
2017-01-03T13:14:24.552Z,30.4
2017-01-03T13:15:24.665Z,30.4
2017-01-03T13:16:26.199Z,30.4
2017-01-03T13:17:24.706Z,30.5
2017-01-03T13:18:24.904Z,30.5
2017-01-03T13:19:28.956Z,30.4
2017-01-03T13:20:27.148Z,30.4
2017-01-03T13:21:26.630Z,30.5
2017-01-03T13:22:25.673Z,30.5
2017-01-03T13:23:26.685Z,30.5
2017-01-03T13:24:25.752Z,30.5
2017-01-03T13:25:27.465Z,30.5
2017-01-03T13:26:25.231Z,30.5
2017-01-03T13:27:26.931Z,30.5
2017-01-03T13:28:25.242Z,30.6
2017-01-03T13:29:27.439Z,30.6
2017-01-03T13:30:27.979Z,30.6
2017-01-03T13:31:30.775Z,30.6